createdAt,value
2023-01-07T00:01:42.985Z,4.40
2023-01-07T00:04:15.147Z,4.60
2023-01-07T00:06:45.329Z,4.40
2023-01-07T00:09:18.815Z,5.03
2023-01-07T00:11:46.131Z,4.40
2023-01-07T00:14:15.109Z,4.60
2023-01-07T00:16:43.204Z,5.10
2023-01-07T00:19:15.601Z,5.63
2023-01-07T00:21:46.584Z,4.90
2023-01-07T00:24:13.665Z,4.50
2023-01-07T00:26:41.279Z,3.87
2023-01-07T00:29:09.769Z,4.60
2023-01-07T00:31:41.084Z,4.50
2023-01-07T00:34:09.431Z,4.40
2023-01-07T00:36:46.205Z,4.73
2023-01-07T00:39:21.388Z,4.77
2023-01-07T00:42:08.609Z,4.17
2023-01-07T00:44:37.704Z,4.53
2023-01-07T00:47:04.953Z,4.80
2023-01-07T00:49:31.866Z,4.77
2023-01-07T00:51:58.752Z,6.40
2023-01-07T00:54:25.686Z,4.87
2023-01-07T00:56:52.651Z,5.03
2023-01-07T00:59:19.594Z,4.80
2023-01-07T01:01:46.650Z,4.37
2023-01-07T01:04:13.642Z,4.77
2023-01-07T01:06:40.570Z,4.70
2023-01-07T01:09:07.443Z,5.80
2023-01-07T01:11:34.679Z,4.93
2023-01-07T01:14:01.526Z,4.53
2023-01-07T01:16:28.614Z,4.07
2023-01-07T01:18:55.527Z,4.17
2023-01-07T01:21:22.457Z,4.00
2023-01-07T01:23:49.334Z,4.73
2023-01-07T01:26:17.485Z,4.07
2023-01-07T01:28:45.521Z,4.67
2023-01-07T01:31:12.812Z,5.23
2023-01-07T01:33:39.826Z,4.73
2023-01-07T01:36:11.287Z,5.20
2023-01-07T01:38:39.235Z,4.37
2023-01-07T01:41:07.784Z,4.10
2023-01-07T01:43:41.821Z,4.97
2023-01-07T01:46:41.814Z,3.90
2023-01-07T01:49:31.523Z,4.40
2023-01-07T01:52:17.192Z,4.63
2023-01-07T01:54:56.544Z,4.63
2023-01-07T01:57:27.910Z,4.90
2023-01-07T01:59:57.914Z,5.00
2023-01-07T02:02:40.900Z,5.03
2023-01-07T02:05:09.603Z,5.00
2023-01-07T02:07:36.467Z,5.30
2023-01-07T02:10:25.196Z,5.00
2023-01-07T02:14:15.359Z,4.70
2023-01-07T02:17:16.348Z,4.67
2023-01-07T02:20:22.530Z,3.20
2023-01-07T02:23:45.916Z,3.90
2023-01-07T02:26:49.808Z,4.10
2023-01-07T02:30:11.024Z,3.50
2023-01-07T02:33:26.136Z,3.97
2023-01-07T02:36:42.978Z,3.87
2023-01-07T02:39:57.308Z,3.73
2023-01-07T02:43:16.065Z,2.87
2023-01-07T02:46:11.977Z,3.60
2023-01-07T02:48:40.620Z,3.63
2023-01-07T02:51:07.640Z,3.60
2023-01-07T02:53:35.408Z,3.53
2023-01-07T02:56:31.191Z,3.80
2023-01-07T03:00:05.140Z,3.80
2023-01-07T03:03:21.784Z,3.60
2023-01-07T03:06:32.857Z,3.83
2023-01-07T03:09:44.025Z,3.23
2023-01-07T03:12:35.641Z,3.40
2023-01-07T03:15:28.146Z,4.10
2023-01-07T03:18:28.708Z,4.03
2023-01-07T03:21:05.127Z,3.87
2023-01-07T03:23:41.439Z,3.70
2023-01-07T03:26:13.288Z,3.63
2023-01-07T03:28:42.640Z,4.13
2023-01-07T03:31:16.064Z,4.07
2023-01-07T03:34:05.127Z,4.23
2023-01-07T03:36:41.813Z,4.00
2023-01-07T03:39:12.216Z,3.67
2023-01-07T03:41:59.478Z,4.40
2023-01-07T03:44:27.424Z,3.87
2023-01-07T03:46:54.731Z,4.23
2023-01-07T03:49:21.666Z,3.97
2023-01-07T03:51:49.379Z,4.70
2023-01-07T03:54:16.508Z,4.87
2023-01-07T03:56:43.549Z,4.27
2023-01-07T03:59:10.559Z,4.30
2023-01-07T04:01:37.755Z,4.80
2023-01-07T04:04:04.979Z,4.60
2023-01-07T04:06:32.271Z,4.03
2023-01-07T04:08:59.339Z,4.50
2023-01-07T04:11:26.333Z,4.27
2023-01-07T04:13:53.207Z,4.50
2023-01-07T04:16:20.182Z,4.47
2023-01-07T04:18:47.065Z,4.00
2023-01-07T04:21:13.942Z,4.50
2023-01-07T04:23:40.811Z,4.90
2023-01-07T04:26:07.713Z,4.63
2023-01-07T04:28:34.754Z,4.60
2023-01-07T04:31:01.820Z,4.20
2023-01-07T04:33:28.778Z,4.67
2023-01-07T04:35:57.589Z,4.37
2023-01-07T04:38:24.502Z,4.07
2023-01-07T04:40:51.455Z,4.60
2023-01-07T04:43:18.465Z,4.30
2023-01-07T04:45:45.426Z,4.33
2023-01-07T04:48:12.315Z,4.30
2023-01-07T04:50:39.242Z,4.23
2023-01-07T04:53:06.170Z,4.67
2023-01-07T04:55:33.093Z,4.63
2023-01-07T04:57:59.986Z,5.83
2023-01-07T05:00:26.868Z,5.63
2023-01-07T05:02:53.756Z,5.63
2023-01-07T05:05:21.490Z,6.13
2023-01-07T05:07:48.492Z,5.60
2023-01-07T05:10:15.424Z,5.60
2023-01-07T05:12:42.300Z,6.60
2023-01-07T05:15:10.128Z,6.20
2023-01-07T05:17:37.326Z,5.70
2023-01-07T05:20:06.346Z,6.33
2023-01-07T05:22:33.201Z,6.70
2023-01-07T05:25:00.391Z,6.40
2023-01-07T05:27:27.303Z,6.40
2023-01-07T05:29:54.241Z,6.73
2023-01-07T05:32:21.140Z,5.97
2023-01-07T05:34:47.995Z,6.47
2023-01-07T05:37:14.888Z,6.60
2023-01-07T05:39:41.948Z,6.73
2023-01-07T05:42:08.908Z,7.40
2023-01-07T05:44:35.768Z,7.20
2023-01-07T05:47:02.685Z,6.47
2023-01-07T05:49:29.584Z,5.47
2023-01-07T05:51:56.456Z,5.60
2023-01-07T05:54:23.341Z,5.40
2023-01-07T05:56:50.221Z,6.43
2023-01-07T05:59:17.811Z,6.87
2023-01-07T06:01:44.748Z,6.67
2023-01-07T06:04:12.142Z,5.83
2023-01-07T06:06:39.079Z,5.80
2023-01-07T06:09:06.677Z,6.47
2023-01-07T06:11:33.673Z,6.90
2023-01-07T06:14:00.558Z,7.43
2023-01-07T06:16:27.417Z,5.90
2023-01-07T06:18:54.273Z,7.13
2023-01-07T06:21:21.490Z,7.40
2023-01-07T06:23:48.367Z,6.30
2023-01-07T06:26:15.301Z,7.47
2023-01-07T06:28:42.239Z,7.33
2023-01-07T06:31:11.635Z,8.37
2023-01-07T06:33:40.571Z,7.73
2023-01-07T06:36:08.722Z,7.57
2023-01-07T06:38:35.948Z,8.10
2023-01-07T06:41:03.531Z,8.50
2023-01-07T06:43:30.505Z,7.23
2023-01-07T06:45:57.641Z,7.33
2023-01-07T06:48:24.625Z,7.27
2023-01-07T06:50:51.524Z,7.67
2023-01-07T06:53:18.402Z,6.63
2023-01-07T06:55:51.055Z,7.73
2023-01-07T06:58:18.802Z,7.40
2023-01-07T07:00:45.818Z,8.17
2023-01-07T07:03:13.017Z,8.83
2023-01-07T07:05:40.138Z,8.90
2023-01-07T07:08:07.229Z,8.70
2023-01-07T07:10:34.297Z,8.80
2023-01-07T07:13:01.614Z,9.17
2023-01-07T07:15:28.706Z,8.87
2023-01-07T07:17:55.578Z,9.60
2023-01-07T07:20:22.488Z,9.50
2023-01-07T07:22:49.617Z,9.67
2023-01-07T07:25:16.650Z,10.30
2023-01-07T07:27:47.448Z,9.20
2023-01-07T07:30:16.155Z,9.40
2023-01-07T07:32:43.575Z,9.23
2023-01-07T07:35:12.268Z,9.07
2023-01-07T07:37:39.714Z,9.53
2023-01-07T07:40:09.076Z,8.60
2023-01-07T07:43:10.191Z,10.43
2023-01-07T07:45:25.581Z,8.73
2023-01-07T07:47:52.439Z,9.37
2023-01-07T07:50:19.300Z,9.00
2023-01-07T07:52:46.210Z,8.43
2023-01-07T07:55:20.207Z,9.23
2023-01-07T07:57:58.221Z,10.67
2023-01-07T08:00:25.459Z,8.77
2023-01-07T08:02:52.481Z,9.93
2023-01-07T08:05:19.809Z,8.70
2023-01-07T08:07:46.687Z,8.63
2023-01-07T08:10:13.976Z,8.00
2023-01-07T08:12:40.876Z,9.07
2023-01-07T08:15:09.440Z,9.13
2023-01-07T08:17:36.594Z,8.43
2023-01-07T08:20:06.219Z,8.63
2023-01-07T08:22:33.782Z,8.83
2023-01-07T08:25:01.028Z,8.33
2023-01-07T08:27:29.483Z,7.97
2023-01-07T08:29:57.222Z,8.90
2023-01-07T08:32:24.232Z,9.20
2023-01-07T08:34:51.323Z,8.20
2023-01-07T08:37:18.204Z,9.40
2023-01-07T08:39:45.110Z,9.40
2023-01-07T08:42:12.028Z,9.00
2023-01-07T08:44:39.057Z,9.03
2023-01-07T08:47:06.034Z,9.20
2023-01-07T08:49:32.923Z,9.30
2023-01-07T08:51:59.849Z,8.87
2023-01-07T08:54:26.864Z,9.37
2023-01-07T08:56:53.924Z,8.90
2023-01-07T08:59:20.895Z,8.70
2023-01-07T09:03:44.665Z,9.17
2023-01-07T09:06:11.854Z,8.47
2023-01-07T09:08:40.290Z,7.80
2023-01-07T09:11:07.372Z,8.90
2023-01-07T09:13:34.279Z,8.90
2023-01-07T09:16:01.223Z,8.13
2023-01-07T09:18:28.213Z,8.87
2023-01-07T09:20:55.141Z,7.30
2023-01-07T09:23:22.038Z,7.73
2023-01-07T09:25:48.976Z,8.20
2023-01-07T09:28:15.872Z,6.70
2023-01-07T09:30:43.204Z,6.53
2023-01-07T09:33:10.308Z,6.40
2023-01-07T09:35:37.255Z,6.43
2023-01-07T09:38:04.161Z,6.33
2023-01-07T09:40:41.606Z,6.03
2023-01-07T09:44:00.460Z,6.17
2023-01-07T09:46:24.297Z,5.23
2023-01-07T09:49:04.131Z,4.93
2023-01-07T09:51:40.994Z,5.97
2023-01-07T09:54:27.139Z,6.00
2023-01-07T09:56:54.302Z,5.23
2023-01-07T09:59:21.421Z,5.60
2023-01-07T10:02:20.752Z,6.10
2023-01-07T10:05:20.983Z,6.00
2023-01-07T10:08:30.533Z,5.03
2023-01-07T10:11:57.603Z,6.37
2023-01-07T10:14:52.149Z,5.77
2023-01-07T10:18:00.471Z,6.40
2023-01-07T10:21:05.017Z,6.43
2023-01-07T10:23:41.897Z,6.40
2023-01-07T10:26:35.652Z,6.67
2023-01-07T10:29:19.819Z,7.70
2023-01-07T10:31:52.021Z,6.70
2023-01-07T10:34:41.857Z,7.00
2023-01-07T10:37:38.512Z,6.50
2023-01-07T10:40:42.675Z,6.90
2023-01-07T10:43:40.672Z,6.53
2023-01-07T10:47:02.586Z,6.37
2023-01-07T10:50:00.392Z,5.83
2023-01-07T10:52:48.770Z,5.90
2023-01-07T10:55:43.662Z,5.50
2023-01-07T10:58:12.383Z,5.97
2023-01-07T11:00:41.394Z,4.80
2023-01-07T11:03:24.348Z,4.17
2023-01-07T11:06:02.848Z,3.57
2023-01-07T11:08:40.181Z,3.70
2023-01-07T11:11:18.031Z,3.23
2023-01-07T11:14:19.357Z,2.80
2023-01-07T11:17:08.696Z,1.97
2023-01-07T11:19:56.383Z,1.90
2023-01-07T11:22:26.326Z,2.07
2023-01-07T11:24:56.537Z,2.17
2023-01-07T11:27:33.575Z,2.10
2023-01-07T11:30:32.138Z,2.30
2023-01-07T11:33:07.612Z,2.30
2023-01-07T11:35:35.643Z,2.17
2023-01-07T11:38:09.887Z,2.80
2023-01-07T11:40:36.815Z,2.40
2023-01-07T11:43:25.670Z,2.03
2023-01-07T11:46:19.379Z,2.70
2023-01-07T11:48:58.106Z,3.13
2023-01-07T11:51:25.400Z,2.23
2023-01-07T11:53:59.024Z,2.57
2023-01-07T11:56:34.501Z,2.63
2023-01-07T11:59:28.701Z,2.77
2023-01-07T12:01:59.594Z,3.30
2023-01-07T12:04:36.990Z,3.07
2023-01-07T12:07:16.509Z,2.73
2023-01-07T12:09:46.135Z,2.10
2023-01-07T12:12:39.167Z,2.10
2023-01-07T12:15:20.957Z,2.73
2023-01-07T12:18:08.988Z,2.17
2023-01-07T12:21:10.932Z,1.90
2023-01-07T12:24:06.757Z,2.10
2023-01-07T12:27:30.613Z,2.30
2023-01-07T12:30:27.694Z,2.00
2023-01-07T12:33:50.237Z,2.20
2023-01-07T12:36:52.923Z,2.10
2023-01-07T12:39:35.984Z,2.10
2023-01-07T12:42:27.998Z,1.80
2023-01-07T12:45:18.050Z,2.70
2023-01-07T12:47:59.249Z,2.60
2023-01-07T12:50:39.679Z,2.53
2023-01-07T12:53:36.301Z,2.40
2023-01-07T12:56:38.380Z,2.40
2023-01-07T12:59:46.394Z,2.10
2023-01-07T13:02:29.969Z,2.13
2023-01-07T13:05:26.524Z,2.30
2023-01-07T13:08:51.042Z,2.10
2023-01-07T13:12:40.674Z,2.17
2023-01-07T13:15:28.734Z,2.10
2023-01-07T13:18:17.750Z,2.07
2023-01-07T13:21:04.904Z,2.33
2023-01-07T13:24:03.038Z,2.23
2023-01-07T13:27:21.392Z,2.23
2023-01-07T13:30:34.244Z,1.90
2023-01-07T13:34:11.782Z,1.90
2023-01-07T13:37:29.702Z,2.00
2023-01-07T13:41:02.175Z,1.90
2023-01-07T13:43:54.157Z,2.00
2023-01-07T13:46:39.243Z,2.03
2023-01-07T13:49:24.404Z,2.07
2023-01-07T13:51:52.009Z,2.47
2023-01-07T13:55:02.069Z,2.90
2023-01-07T13:57:31.545Z,2.60
2023-01-07T14:00:04.989Z,2.10
2023-01-07T14:02:57.269Z,2.33
2023-01-07T14:05:28.919Z,2.43
2023-01-07T14:08:02.475Z,2.70
2023-01-07T14:10:37.335Z,2.10
2023-01-07T14:13:38.575Z,1.90
2023-01-07T14:16:32.984Z,2.47
2023-01-07T14:19:32.979Z,2.27
2023-01-07T14:22:42.018Z,2.10
2023-01-07T14:25:57.555Z,2.33
2023-01-07T14:29:14.140Z,2.17
2023-01-07T14:31:41.472Z,1.87
2023-01-07T14:34:26.500Z,1.97
2023-01-07T14:37:02.365Z,2.00
2023-01-07T14:39:46.336Z,1.90
2023-01-07T14:42:18.924Z,2.00
2023-01-07T14:44:54.902Z,2.03
2023-01-07T14:47:53.709Z,2.03
2023-01-07T14:51:04.685Z,2.83
2023-01-07T14:53:57.020Z,4.00
2023-01-07T14:57:09.684Z,4.00
2023-01-07T15:00:54.203Z,3.77
2023-01-07T15:04:06.647Z,2.80
2023-01-07T15:06:41.721Z,2.60
2023-01-07T15:09:41.201Z,2.10
2023-01-07T15:12:41.963Z,2.13
2023-01-07T15:15:55.004Z,2.20
2023-01-07T15:18:22.847Z,2.40
2023-01-07T15:21:37.503Z,2.33
2023-01-07T15:24:49.473Z,5.87
2023-01-07T15:27:37.795Z,3.70
2023-01-07T15:30:40.996Z,3.40
2023-01-07T15:33:53.170Z,3.90
2023-01-07T15:36:20.570Z,3.20
2023-01-07T15:38:56.063Z,3.10
2023-01-07T15:41:39.002Z,3.23
2023-01-07T15:44:20.170Z,3.40
2023-01-07T15:46:47.633Z,3.03
2023-01-07T15:49:21.048Z,3.37
2023-01-07T15:52:01.403Z,3.33
2023-01-07T15:54:39.345Z,3.60
2023-01-07T15:57:34.269Z,4.57
2023-01-07T16:00:01.658Z,3.73
2023-01-07T16:02:44.185Z,3.83
2023-01-07T16:05:11.382Z,4.90
2023-01-07T16:08:01.649Z,4.90
2023-01-07T16:10:33.951Z,4.80
2023-01-07T16:13:18.198Z,4.20
2023-01-07T16:15:45.333Z,4.63
2023-01-07T16:18:13.322Z,4.63
2023-01-07T16:20:56.622Z,6.50
2023-01-07T16:23:32.587Z,4.73
2023-01-07T16:26:42.896Z,4.87
2023-01-07T16:29:21.788Z,4.67
2023-01-07T16:31:49.294Z,13.30
2023-01-07T16:34:25.473Z,8.30
2023-01-07T16:37:02.415Z,5.60
2023-01-07T16:39:47.335Z,5.50
2023-01-07T16:42:27.125Z,5.20
2023-01-07T16:44:53.929Z,4.67
2023-01-07T16:47:30.956Z,4.80
2023-01-07T16:50:34.356Z,5.90
2023-01-07T16:53:02.164Z,6.90
2023-01-07T16:55:53.203Z,7.87
2023-01-07T16:58:43.212Z,10.00
2023-01-07T17:01:12.331Z,10.30
2023-01-07T17:03:59.515Z,10.67
2023-01-07T17:06:42.084Z,9.30
2023-01-07T17:09:41.409Z,7.83
2023-01-07T17:12:39.603Z,7.93
2023-01-07T17:15:31.316Z,6.50
2023-01-07T17:18:14.391Z,5.43
2023-01-07T17:20:55.577Z,6.40
2023-01-07T17:23:25.515Z,7.40
2023-01-07T17:26:40.414Z,7.10
2023-01-07T17:29:12.988Z,8.03
2023-01-07T17:31:40.665Z,6.83
2023-01-07T17:34:12.704Z,7.80
2023-01-07T17:36:39.960Z,7.67
2023-01-07T17:39:07.094Z,6.10
2023-01-07T17:41:56.352Z,6.77
2023-01-07T17:44:23.683Z,7.40
2023-01-07T17:46:50.614Z,7.63
2023-01-07T17:49:17.670Z,7.53
2023-01-07T17:51:48.387Z,7.30
2023-01-07T17:54:24.442Z,6.20
2023-01-07T17:56:52.276Z,5.67
2023-01-07T17:59:23.620Z,6.13
2023-01-07T18:01:54.829Z,6.03
2023-01-07T18:04:22.252Z,5.57
2023-01-07T18:06:49.165Z,5.73
2023-01-07T18:09:16.043Z,6.10
2023-01-07T18:12:04.678Z,6.47
2023-01-07T18:14:32.523Z,6.13
2023-01-07T18:16:59.538Z,6.00
2023-01-07T18:19:26.499Z,6.20
2023-01-07T18:21:53.405Z,5.60
2023-01-07T18:24:21.641Z,6.27
2023-01-07T18:26:49.047Z,5.90
2023-01-07T18:29:15.975Z,5.73
2023-01-07T18:31:44.710Z,7.10
2023-01-07T18:34:15.249Z,6.33
2023-01-07T18:36:42.771Z,5.70
2023-01-07T18:39:19.602Z,5.60
2023-01-07T18:41:51.301Z,5.30
2023-01-07T18:44:21.432Z,6.40
2023-01-07T18:46:48.613Z,5.80
2023-01-07T18:49:16.121Z,6.97
2023-01-07T18:51:45.481Z,6.47
2023-01-07T18:54:12.358Z,6.67
2023-01-07T18:56:39.292Z,6.20
2023-01-07T18:59:06.171Z,7.60
2023-01-07T19:01:33.212Z,5.90
2023-01-07T19:04:00.279Z,5.80
2023-01-07T19:06:27.296Z,6.70
2023-01-07T19:08:56.311Z,6.10
2023-01-07T19:11:23.244Z,8.33
2023-01-07T19:13:50.162Z,6.43
2023-01-07T19:16:17.093Z,7.43
2023-01-07T19:18:44.031Z,7.50
2023-01-07T19:21:12.642Z,6.90
2023-01-07T19:23:40.326Z,7.50
2023-01-07T19:26:11.091Z,7.17
2023-01-07T19:28:38.049Z,7.00
2023-01-07T19:31:08.496Z,7.20
2023-01-07T19:33:36.740Z,7.83
2023-01-07T19:36:09.242Z,6.80
2023-01-07T19:38:48.541Z,7.47
2023-01-07T19:41:20.806Z,7.37
2023-01-07T19:43:51.911Z,7.27
2023-01-07T19:46:20.049Z,7.30
2023-01-07T19:48:47.894Z,7.27
2023-01-07T19:51:15.459Z,7.83
2023-01-07T19:53:42.487Z,6.40
2023-01-07T19:56:12.652Z,6.80
2023-01-07T19:58:41.745Z,6.57
2023-01-07T20:01:17.703Z,7.40
2023-01-07T20:03:45.505Z,6.37
2023-01-07T20:06:17.171Z,7.50
2023-01-07T20:08:45.138Z,7.83
2023-01-07T20:11:13.487Z,7.80
2023-01-07T20:13:44.412Z,7.03
2023-01-07T20:16:21.713Z,8.43
2023-01-07T20:18:53.503Z,7.70
2023-01-07T20:21:26.454Z,7.67
2023-01-07T20:23:54.892Z,7.47
2023-01-07T20:26:31.469Z,7.60
2023-01-07T20:29:00.761Z,7.67
2023-01-07T20:31:31.199Z,6.70
2023-01-07T20:33:59.923Z,8.10
2023-01-07T20:36:31.529Z,7.57
2023-01-07T20:39:05.675Z,6.83
2023-01-07T20:41:35.126Z,8.50
2023-01-07T20:44:07.495Z,7.50
2023-01-07T20:46:40.560Z,8.03
2023-01-07T20:49:08.320Z,7.57
2023-01-07T20:51:35.330Z,9.10
2023-01-07T20:54:02.262Z,8.30
2023-01-07T20:56:31.971Z,8.60
2023-01-07T20:59:01.660Z,8.47
2023-01-07T21:01:29.418Z,8.73
2023-01-07T21:03:56.612Z,7.53
2023-01-07T21:06:24.532Z,7.80
2023-01-07T21:08:51.483Z,7.80
2023-01-07T21:11:25.932Z,7.50
2023-01-07T21:13:55.778Z,7.10
2023-01-07T21:16:25.473Z,8.40
2023-01-07T21:18:55.917Z,7.63
2023-01-07T21:21:25.247Z,9.00
2023-01-07T21:23:54.253Z,7.73
2023-01-07T21:26:22.949Z,8.63
2023-01-07T21:28:58.863Z,8.70
2023-01-07T21:31:27.005Z,8.80
2023-01-07T21:33:57.400Z,9.15
2023-01-07T21:36:26.567Z,8.30
2023-01-07T21:38:58.969Z,7.40
2023-01-07T21:41:28.504Z,8.55
2023-01-07T21:43:56.233Z,8.23
2023-01-07T21:46:23.504Z,9.70
2023-01-07T21:48:51.764Z,8.40
2023-01-07T21:51:28.002Z,7.70
2023-01-07T21:53:57.738Z,8.50
2023-01-07T21:56:32.493Z,9.00
2023-01-07T21:59:00.614Z,9.00
2023-01-07T22:01:28.769Z,8.17
2023-01-07T22:03:58.755Z,9.27
2023-01-07T22:06:32.771Z,9.07
2023-01-07T22:09:07.915Z,10.03
2023-01-07T22:11:38.887Z,9.27
2023-01-07T22:14:05.859Z,9.70
2023-01-07T22:16:33.451Z,9.40
2023-01-07T22:19:01.168Z,9.57
2023-01-07T22:21:28.383Z,8.50
2023-01-07T22:23:55.400Z,8.93
2023-01-07T22:26:22.855Z,8.83
2023-01-07T22:29:01.927Z,8.90
2023-01-07T22:31:36.384Z,9.07
2023-01-07T22:34:06.209Z,8.65
2023-01-07T22:36:59.997Z,8.40
2023-01-07T22:39:37.243Z,7.72
2023-01-07T22:42:27.976Z,9.60
2023-01-07T22:45:14.546Z,8.55
2023-01-07T22:47:50.009Z,8.38
2023-01-07T22:50:18.591Z,9.32
2023-01-07T22:52:46.577Z,8.13
2023-01-07T22:55:14.741Z,10.07
2023-01-07T22:57:42.038Z,9.27
2023-01-07T23:00:40.846Z,10.10
2023-01-07T23:03:08.178Z,10.55
2023-01-07T23:05:35.937Z,10.02
2023-01-07T23:08:02.800Z,10.80
2023-01-07T23:10:29.712Z,10.13
2023-01-07T23:12:56.598Z,9.75
2023-01-07T23:15:23.597Z,9.93
2023-01-07T23:17:50.526Z,8.77
2023-01-07T23:20:17.500Z,11.10
2023-01-07T23:22:44.435Z,10.47
2023-01-07T23:25:11.444Z,11.95
2023-01-07T23:27:39.507Z,10.93
2023-01-07T23:30:08.750Z,9.73
2023-01-07T23:32:35.704Z,10.80
2023-01-07T23:35:02.808Z,10.40
2023-01-07T23:37:29.693Z,10.37
2023-01-07T23:39:56.596Z,10.77
2023-01-07T23:42:23.520Z,12.07
2023-01-07T23:44:50.393Z,11.18
2023-01-07T23:47:17.263Z,9.60
2023-01-07T23:49:50.136Z,10.18
2023-01-07T23:52:17.716Z,11.95
2023-01-07T23:54:44.896Z,11.90
2023-01-07T23:57:11.993Z,10.45
2023-01-07T23:59:38.872Z,11.75
